Time;durP1;ratioP1;P1;durP2;ratioP2;P2;SDS_P1;SDS_P2;PMS_P1;PMS_P2;Temp;Humidity;BMP_temperature;BMP_pressure;BME280_temperature;BME280_humidity;BME280_pressure;Samples;Min_cycle;Max_cycle;Signal;HPM_P1;HPM_P2
2023/10/29 00:02:01;;;;;;;6.90;4.53;;;6.50;97.40;;;;;;9818207;30;20288;-79
2023/10/29 00:07:22;;;;;;;5.70;4.27;;;6.40;1.00;;;;;;9821037;30;20537;-78
2023/10/29 00:12:43;;;;;;;6.97;4.90;;;6.50;1.00;;;;;;9821157;30;20202;-79
2023/10/29 00:18:12;;;;;;;11.67;5.60;;;6.50;1.00;;;;;;9819735;30;20206;-77
2023/10/29 00:23:34;;;;;;;8.07;5.23;;;6.40;1.00;;;;;;9832295;30;20207;-77
2023/10/29 00:28:55;;;;;;;5.93;4.77;;;6.40;99.90;;;;;;9820444;30;20237;-77
2023/10/29 00:34:16;;;;;;;6.53;4.67;;;6.40;34.90;;;;;;9819466;30;20203;-79
2023/10/29 00:39:38;;;;;;;8.23;5.10;;;6.40;1.00;;;;;;9817843;30;20285;-78
2023/10/29 00:44:59;;;;;;;7.63;5.23;;;6.40;1.00;;;;;;9819909;30;20226;-77
2023/10/29 00:50:21;;;;;;;6.97;5.00;;;6.40;1.00;;;;;;9818640;30;20210;-76
2023/10/29 00:55:43;;;;;;;6.37;4.37;;;6.40;1.00;;;;;;9819038;30;20210;-76
2023/10/29 01:01:04;;;;;;;11.27;5.97;;;6.50;2.50;;;;;;9802519;30;20491;-76
2023/10/29 01:06:26;;;;;;;6.87;5.30;;;6.50;1.00;;;;;;9803232;30;20230;-76
2023/10/29 01:11:47;;;;;;;7.50;5.70;;;6.50;1.00;;;;;;9818258;30;20498;-76
2023/10/29 01:17:08;;;;;;;8.80;5.70;;;6.50;1.00;;;;;;9805803;30;20211;-76
2023/10/29 01:22:30;;;;;;;7.17;5.37;;;6.50;1.00;;;;;;9818812;30;20203;-77
2023/10/29 01:27:52;;;;;;;6.20;4.57;;;6.60;64.00;;;;;;9817707;30;20238;-78
2023/10/29 01:33:13;;;;;;;8.13;5.57;;;6.50;36.00;;;;;;9817580;30;20363;-76
2023/10/29 01:38:35;;;;;;;7.20;5.10;;;6.60;1.00;;;;;;9818416;30;20204;-77
2023/10/29 01:43:56;;;;;;;7.40;5.27;;;6.60;14.30;;;;;;9817198;30;20202;-77
2023/10/29 01:49:17;;;;;;;8.63;6.17;;;6.60;1.00;;;;;;9817256;30;20203;-77
2023/10/29 01:54:39;;;;;;;6.77;5.13;;;6.60;1.00;;;;;;9817186;30;20208;-76
2023/10/29 02:00:00;;;;;;;7.10;4.53;;;6.60;1.00;;;;;;9816170;30;20226;-78
2023/10/29 02:05:31;;;;;;;8.90;6.03;;;6.60;1.00;;;;;;9817892;30;20243;-77
2023/10/29 02:10:52;;;;;;;8.27;5.07;;;6.50;1.00;;;;;;9817120;30;20202;-77
2023/10/29 02:16:13;;;;;;;7.10;4.87;;;6.50;99.90;;;;;;9817531;30;20203;-80
2023/10/29 02:21:35;;;;;;;7.17;5.50;;;6.50;99.90;;;;;;9828896;30;20230;-77
2023/10/29 02:26:55;;;;;;;6.90;4.93;;;6.40;99.90;;;;;;9824372;30;20240;-78
2023/10/29 02:32:17;;;;;;;9.17;6.33;;;6.40;1.00;;;;;;9823578;30;20217;-77
2023/10/29 02:37:38;;;;;;;8.80;5.60;;;6.50;1.00;;;;;;9823513;30;20494;-78
2023/10/29 02:42:59;;;;;;;6.90;5.77;;;6.40;1.00;;;;;;9824155;30;20210;-76
2023/10/29 02:48:21;;;;;;;6.77;5.63;;;6.50;1.00;;;;;;9822899;30;20437;-77
2023/10/29 02:53:42;;;;;;;8.60;6.30;;;6.40;1.00;;;;;;9823513;30;20218;-77
2023/10/29 02:59:03;;;;;;;7.53;5.80;;;6.40;1.00;;;;;;9821873;30;20245;-78
2023/10/29 03:04:25;;;;;;;7.90;5.93;;;6.40;61.60;;;;;;9821920;30;20293;-78
2023/10/29 03:09:46;;;;;;;8.20;6.40;;;6.40;99.90;;;;;;9822985;30;20229;-77
2023/10/29 03:15:07;;;;;;;12.90;7.97;;;6.40;99.90;;;;;;9822877;30;20490;-77
2023/10/29 03:20:28;;;;;;;10.80;7.20;;;6.40;99.90;;;;;;9822679;30;20210;-78
2023/10/29 03:25:50;;;;;;;10.47;7.30;;;6.30;1.00;;;;;;9822382;30;20227;-77
2023/10/29 03:31:15;;;;;;;13.10;7.67;;;6.10;99.90;;;;;;9822364;30;20482;-76
2023/10/29 03:36:36;;;;;;;14.73;9.03;;;6.30;1.00;;;;;;9808174;30;20203;-76
2023/10/29 03:41:57;;;;;;;9.37;7.67;;;6.30;99.90;;;;;;9821940;30;20430;-76
2023/10/29 03:47:18;;;;;;;11.70;9.00;;;6.30;1.00;;;;;;9821554;30;20450;-78
2023/10/29 03:52:40;;;;;;;11.43;8.87;;;6.30;1.00;;;;;;9821686;30;20506;-76
2023/10/29 03:58:01;;;;;;;10.37;8.67;;;6.30;99.90;;;;;;9821369;30;20249;-79
2023/10/29 04:03:25;;;;;;;13.60;8.93;;;6.30;1.00;;;;;;9820632;30;20249;-79
2023/10/29 04:08:47;;;;;;;15.47;9.83;;;;;;;;;;9820903;30;20306;-76
2023/10/29 04:14:08;;;;;;;14.03;10.13;;;6.30;1.00;;;;;;9820041;30;20200;-76
2023/10/29 04:19:29;;;;;;;16.10;10.63;;;6.20;78.80;;;;;;9820750;30;20264;-78
2023/10/29 04:24:51;;;;;;;15.57;10.73;;;6.30;1.00;;;;;;9819595;30;20299;-77
2023/10/29 04:30:12;;;;;;;17.23;11.73;;;6.30;1.00;;;;;;9820367;30;20219;-78
2023/10/29 04:35:33;;;;;;;11.80;9.97;;;6.20;1.00;;;;;;9820311;30;20206;-78
2023/10/29 04:40:54;;;;;;;15.00;10.47;;;6.40;1.00;;;;;;9820166;30;20207;-77
2023/10/29 04:46:15;;;;;;;12.97;9.67;;;6.40;99.90;;;;;;9818839;30;20251;-76
2023/10/29 04:51:36;;;;;;;12.40;9.77;;;6.30;99.90;;;;;;9819425;30;20233;-76
2023/10/29 04:56:57;;;;;;;13.57;9.00;;;6.30;99.90;;;;;;9819360;30;20206;-77
2023/10/29 05:02:19;;;;;;;11.70;9.03;;;6.30;99.90;;;;;;9797118;30;20246;-78
2023/10/29 05:07:41;;;;;;;13.57;9.00;;;6.30;99.90;;;;;;9818935;30;20242;-76
2023/10/29 05:13:02;;;;;;;12.43;8.63;;;6.20;99.90;;;;;;9818017;30;20216;-76
2023/10/29 05:18:23;;;;;;;13.97;9.23;;;6.20;1.00;;;;;;9829982;30;20276;-77
2023/10/29 05:23:45;;;;;;;13.00;9.83;;;6.20;99.90;;;;;;9817357;30;20505;-77
2023/10/29 05:29:06;;;;;;;13.63;9.40;;;6.20;1.00;;;;;;9818333;30;20227;-77
2023/10/29 05:34:28;;;;;;;13.63;9.80;;;;;;;;;;9817852;30;20234;-79
2023/10/29 05:39:49;;;;;;;15.10;9.57;;;;;;;;;;9817174;30;20508;-79
2023/10/29 05:45:10;;;;;;;14.73;9.47;;;;;;;;;;9817822;30;20397;-78
2023/10/29 05:50:32;;;;;;;14.70;9.73;;;;;;;;;;9817698;30;20207;-77
2023/10/29 05:55:54;;;;;;;11.27;9.17;;;;;;;;;;9816809;30;20217;-77
2023/10/29 06:01:17;;;;;;;15.20;10.27;;;;;;;;;;9813501;30;20257;-78
2023/10/29 06:06:38;;;;;;;15.43;9.90;;;;;;;;;;9829693;30;20299;-78
2023/10/29 06:12:00;;;;;;;18.80;11.20;;;;;;;;;;9829811;30;20211;-78
2023/10/29 06:17:22;;;;;;;19.37;11.67;;;;;;;;;;9829514;30;20206;-78
2023/10/29 06:22:47;;;;;;;15.47;10.70;;;;;;;;;;9829538;30;20523;-79
2023/10/29 06:28:09;;;;;;;13.87;10.40;;;;;;;;;;9829559;30;20317;-77
2023/10/29 06:33:30;;;;;;;13.43;9.73;;;;;;;;;;9827937;30;20199;-77
2023/10/29 06:38:52;;;;;;;13.13;10.00;;;;;;;;;;9829447;30;20508;-76
2023/10/29 06:44:13;;;;;;;17.77;11.07;;;;;;;;;;9829142;30;20483;-78
2023/10/29 06:49:35;;;;;;;17.53;11.17;;;;;;;;;;9828797;30;20834;-79
2023/10/29 06:54:56;;;;;;;15.73;10.33;;;;;;;;;;9828320;30;20597;-78
2023/10/29 07:00:18;;;;;;;16.87;10.07;;;;;;;;;;9824513;30;20300;-80
2023/10/29 07:05:41;;;;;;;19.13;12.27;;;;;;;;;;9828678;30;20242;-77
2023/10/29 07:11:03;;;;;;;25.60;15.33;;;;;;;;;;9824185;30;20541;-77
2023/10/29 07:16:24;;;;;;;20.80;13.30;;;;;;;;;;9821453;30;20584;-78
2023/10/29 07:21:46;;;;;;;17.70;13.10;;;;;;;;;;9809406;30;20214;-78
2023/10/29 07:27:07;;;;;;;22.97;15.60;;;;;;;;;;9821700;30;20237;-77
2023/10/29 07:32:29;;;;;;;25.27;16.00;;;;;;;;;;9821185;30;20272;-78
2023/10/29 07:37:50;;;;;;;27.23;16.30;;;;;;;;;;9822217;30;20225;-80
2023/10/29 07:43:12;;;;;;;26.23;16.93;;;;;;;;;;9822294;30;20210;-78
2023/10/29 07:48:34;;;;;;;26.77;16.33;;;;;;;;;;9821791;30;20257;-80
2023/10/29 07:53:55;;;;;;;25.50;16.20;;;;;;;;;;9821681;30;20530;-79
2023/10/29 07:59:18;;;;;;;25.90;15.80;;;;;;;;;;9820550;30;20203;-79
2023/10/29 08:04:40;;;;;;;25.57;16.00;;;;;;;;;;9821197;30;20238;-78
2023/10/29 08:10:01;;;;;;;20.73;13.97;;;;;;;;;;9820960;30;20305;-79
2023/10/29 08:15:23;;;;;;;24.83;16.57;;;6.30;32.80;;;;;;9819348;30;20210;-78
2023/10/29 08:20:47;;;;;;;24.77;15.67;;;6.30;21.10;;;;;;9820735;30;20430;-78
2023/10/29 08:26:08;;;;;;;22.10;15.20;;;6.40;99.90;;;;;;9820445;30;20283;-78
2023/10/29 08:31:29;;;;;;;28.97;19.30;;;6.30;93.20;;;;;;9820401;30;20261;-78
2023/10/29 08:36:50;;;;;;;19.23;12.10;;;6.30;87.90;;;;;;9820355;30;20402;-79
2023/10/29 08:42:11;;;;;;;27.20;13.83;;;;;;;;;;9820359;30;20305;-80
2023/10/29 08:47:33;;;;;;;21.07;12.43;;;6.30;99.90;;;;;;9819725;30;20235;-79
2023/10/29 08:52:57;;;;;;;22.77;15.07;;;6.40;99.90;;;;;;9819772;30;20251;-79
2023/10/29 08:58:21;;;;;;;21.50;13.47;;;6.40;99.90;;;;;;9818878;30;20213;-79
2023/10/29 09:03:42;;;;;;;23.10;14.97;;;6.30;99.90;;;;;;9784604;30;20253;-78
2023/10/29 09:09:04;;;;;;;22.43;14.30;;;6.30;99.90;;;;;;9809647;30;20237;-79
2023/10/29 09:14:26;;;;;;;21.93;13.83;;;6.30;99.90;;;;;;9805377;30;20209;-80
2023/10/29 09:19:47;;;;;;;25.13;13.83;;;6.30;99.90;;;;;;9818123;30;20203;-78
2023/10/29 09:25:09;;;;;;;27.20;15.73;;;6.30;99.90;;;;;;9818765;30;20214;-79
2023/10/29 09:30:30;;;;;;;22.43;12.70;;;6.30;99.90;;;;;;9818203;30;20225;-80
2023/10/29 09:35:51;;;;;;;21.00;13.43;;;6.30;99.90;;;;;;9818085;30;20222;-79
2023/10/29 09:41:17;;;;;;;22.27;14.57;;;6.20;99.90;;;;;;9818137;30;20285;-79
2023/10/29 09:46:39;;;;;;;16.93;11.40;;;6.20;99.90;;;;;;9818250;30;20260;-79
2023/10/29 09:52:00;;;;;;;18.93;11.40;;;6.30;99.90;;;;;;9818133;30;20206;-78
2023/10/29 09:57:22;;;;;;;20.90;11.80;;;6.30;99.90;;;;;;9817524;30;20440;-79
2023/10/29 10:02:51;;;;;;;20.17;10.33;;;6.30;99.90;;;;;;9813066;30;20459;-79
2023/10/29 10:08:13;;;;;;;20.00;10.53;;;6.50;99.90;;;;;;9816346;30;20244;-77
2023/10/29 10:13:41;;;;;;;16.77;10.63;;;6.50;99.90;;;;;;9817892;30;20202;-76
2023/10/29 10:19:03;;;;;;;14.67;9.20;;;6.40;99.90;;;;;;9817709;30;20210;-78
2023/10/29 10:24:37;;;;;;;16.47;10.93;;;6.40;99.90;;;;;;9817643;30;20245;-79
2023/10/29 10:29:58;;;;;;;13.70;8.83;;;6.40;99.90;;;;;;9816621;30;20594;-79
2023/10/29 10:35:19;;;;;;;15.30;10.10;;;6.40;99.90;;;;;;9824227;30;20202;-79
2023/10/29 10:40:41;;;;;;;16.87;8.13;;;6.40;99.90;;;;;;9827963;30;20202;-79
2023/10/29 10:46:04;;;;;;;13.63;8.53;;;6.30;99.90;;;;;;9830270;30;20252;-77
2023/10/29 10:51:25;;;;;;;18.23;9.77;;;6.40;99.90;;;;;;9824059;30;20519;-78
2023/10/29 10:56:52;;;;;;;12.03;7.63;;;6.40;99.90;;;;;;9823404;30;20209;-79
2023/10/29 11:02:14;;;;;;;11.30;7.40;;;6.40;99.90;;;;;;9822958;30;20254;-78
2023/10/29 11:07:36;;;;;;;14.67;7.73;;;6.50;99.90;;;;;;9822468;30;20261;-79
2023/10/29 11:13:17;;;;;;;13.40;7.67;;;6.50;99.90;;;;;;9823532;30;20203;-79
2023/10/29 11:18:39;;;;;;;12.13;8.17;;;6.50;99.90;;;;;;9823086;30;20200;-78
2023/10/29 11:24:20;;;;;;;16.23;9.53;;;6.60;99.90;;;;;;9822786;30;20199;-78
2023/10/29 11:29:42;;;;;;;23.17;12.17;;;6.60;99.90;;;;;;9822597;30;20237;-78
2023/10/29 11:35:19;;;;;;;14.70;9.93;;;6.60;99.90;;;;;;9822404;30;20261;-78
2023/10/29 11:40:40;;;;;;;13.97;9.77;;;6.70;99.90;;;;;;9822106;30;20288;-78
2023/10/29 11:46:04;;;;;;;14.07;8.93;;;6.70;99.90;;;;;;9820930;30;20226;-78
2023/10/29 11:51:26;;;;;;;16.97;10.57;;;6.80;99.90;;;;;;9821795;30;20210;-79
2023/10/29 11:56:49;;;;;;;13.93;9.27;;;6.80;99.90;;;;;;9819958;30;20210;-79
2023/10/29 12:02:14;;;;;;;10.83;7.97;;;6.90;99.90;;;;;;9809712;30;20258;-78
2023/10/29 12:07:35;;;;;;;13.77;9.60;;;7.00;99.90;;;;;;9821204;30;20357;-78
2023/10/29 12:12:57;;;;;;;10.37;8.27;;;7.00;99.90;;;;;;9820081;30;20214;-78
2023/10/29 12:18:20;;;;;;;17.13;11.23;;;7.10;99.90;;;;;;9820877;30;20552;-79
2023/10/29 12:23:41;;;;;;;18.07;11.53;;;7.20;99.90;;;;;;9820628;30;20494;-79
2023/10/29 12:29:02;;;;;;;18.53;10.30;;;7.30;99.90;;;;;;9820301;30;20550;-80
2023/10/29 12:34:24;;;;;;;14.73;8.77;;;7.40;99.90;;;;;;9784020;30;20200;-78
2023/10/29 12:39:46;;;;;;;13.37;8.90;;;7.50;99.90;;;;;;9782805;30;20206;-79
2023/10/29 12:45:08;;;;;;;16.53;11.43;;;7.60;99.90;;;;;;9791567;30;20519;-79
2023/10/29 12:50:46;;;;;;;17.33;12.60;;;7.70;99.90;;;;;;9819896;30;20235;-79
2023/10/29 12:56:14;;;;;;;21.30;14.07;;;7.80;99.90;;;;;;9784583;30;20234;-77
2023/10/29 13:01:35;;;;;;;19.73;13.07;;;7.90;99.90;;;;;;9817764;30;20239;-78
2023/10/29 13:06:57;;;;;;;24.90;15.63;;;8.00;99.90;;;;;;9817186;30;20230;-79
2023/10/29 13:12:18;;;;;;;25.37;17.50;;;8.10;99.90;;;;;;9819348;30;20223;-78
2023/10/29 13:17:40;;;;;;;32.03;20.07;;;8.20;99.90;;;;;;9819255;30;20222;-79
2023/10/29 13:23:01;;;;;;;27.17;17.27;;;8.20;99.90;;;;;;9817354;30;20307;-79
2023/10/29 13:28:23;;;;;;;46.97;25.43;;;8.30;99.90;;;;;;9818883;30;20271;-80
2023/10/29 13:33:45;;;;;;;33.73;20.40;;;8.40;99.90;;;;;;9817397;30;20554;-79
2023/10/29 13:39:07;;;;;;;26.97;17.63;;;8.50;99.90;;;;;;9818515;30;20262;-79
2023/10/29 13:44:28;;;;;;;33.73;18.57;;;8.70;99.90;;;;;;9818342;30;20242;-79
2023/10/29 13:49:49;;;;;;;32.43;18.13;;;8.70;99.90;;;;;;9816506;30;20254;-78
2023/10/29 13:55:10;;;;;;;33.57;21.13;;;8.80;99.90;;;;;;9818462;30;20204;-79
2023/10/29 14:00:31;;;;;;;45.93;24.37;;;8.80;99.90;;;;;;9802667;30;20268;-78
2023/10/29 14:05:53;;;;;;;29.63;19.13;;;8.90;99.90;;;;;;9817540;30;20202;-78
2023/10/29 14:11:15;;;;;;;25.57;17.80;;;9.00;99.90;;;;;;9817485;30;20255;-78
2023/10/29 14:16:38;;;;;;;34.17;23.00;;;9.00;99.90;;;;;;9817000;30;20264;-80
2023/10/29 14:21:59;;;;;;;26.93;18.33;;;9.10;99.90;;;;;;9824230;30;20441;-79
2023/10/29 14:27:22;;;;;;;23.10;15.43;;;9.30;99.90;;;;;;9824986;30;20304;-78
2023/10/29 14:32:43;;;;;;;27.00;17.37;;;9.40;99.90;;;;;;9825002;30;20198;-79
2023/10/29 14:38:05;;;;;;;27.10;18.23;;;9.30;99.90;;;;;;9824494;30;20205;-79
2023/10/29 14:43:27;;;;;;;34.60;21.33;;;9.40;99.90;;;;;;9824236;30;20209;-78
2023/10/29 14:48:48;;;;;;;37.83;21.10;;;9.40;99.90;;;;;;9822795;30;20251;-77
2023/10/29 14:54:09;;;;;;;35.97;21.20;;;9.40;99.90;;;;;;9823948;30;20221;-77
2023/10/29 14:59:33;;;;;;;45.07;28.70;;;9.40;99.90;;;;;;9818114;30;20264;-79
2023/10/29 15:04:55;;;;;;;82.67;55.33;;;9.40;99.90;;;;;;9787555;30;20209;-79
2023/10/29 15:10:16;;;;;;;73.33;45.17;;;9.40;99.90;;;;;;9804006;30;20229;-78
2023/10/29 15:15:37;;;;;;;62.13;40.30;;;9.50;99.90;;;;;;9823360;30;20432;-79
2023/10/29 15:21:16;;;;;;;42.93;27.77;;;9.50;99.90;;;;;;9822332;30;20217;-79
2023/10/29 15:26:37;;;;;;;54.70;31.10;;;9.50;99.90;;;;;;9822799;30;20452;-79
2023/10/29 15:31:58;;;;;;;75.17;36.97;;;9.50;99.90;;;;;;9821716;30;20206;-78
2023/10/29 15:37:21;;;;;;;51.87;24.50;;;9.50;99.90;;;;;;9821846;30;20228;-78
2023/10/29 15:42:42;;;;;;;58.03;26.33;;;9.50;99.90;;;;;;9786212;30;20209;-78
2023/10/29 15:48:03;;;;;;;59.07;29.23;;;9.50;99.90;;;;;;9799905;30;20229;-79
2023/10/29 15:53:24;;;;;;;66.23;38.17;;;9.50;99.90;;;;;;9820918;30;20208;-79
2023/10/29 15:58:46;;;;;;;32.27;20.50;;;9.50;99.90;;;;;;9821134;30;20418;-79
2023/10/29 16:04:07;;;;;;;31.80;19.63;;;9.50;99.90;;;;;;9808783;30;20239;-78
2023/10/29 16:09:28;;;;;;;27.47;15.90;;;9.40;99.90;;;;;;9820434;30;20241;-79
2023/10/29 16:14:50;;;;;;;28.83;16.87;;;9.50;99.90;;;;;;9821062;30;20617;-79
2023/10/29 16:20:11;;;;;;;22.43;12.20;;;9.50;99.90;;;;;;9821039;30;20206;-76
2023/10/29 16:25:32;;;;;;;21.03;13.13;;;9.60;99.90;;;;;;9819761;30;20233;-78
2023/10/29 16:30:54;;;;;;;19.73;13.07;;;9.60;99.90;;;;;;9820172;30;20229;-79
2023/10/29 16:36:16;;;;;;;21.03;14.07;;;9.60;99.90;;;;;;9820556;30;20229;-78
2023/10/29 16:41:37;;;;;;;31.03;14.77;;;9.60;99.90;;;;;;9818674;30;20444;-78
2023/10/29 16:46:59;;;;;;;23.63;13.90;;;9.60;99.90;;;;;;9820111;30;20281;-78
2023/10/29 16:52:20;;;;;;;28.03;18.03;;;9.60;99.90;;;;;;9819297;30;20418;-79
2023/10/29 16:57:42;;;;;;;21.83;15.53;;;9.60;99.90;;;;;;9817906;30;20209;-77
2023/10/29 17:03:03;;;;;;;29.47;18.30;;;9.60;99.90;;;;;;9769811;30;20261;-78
2023/10/29 17:08:25;;;;;;;18.53;10.67;;;9.70;99.90;;;;;;9802733;30;20233;-78
2023/10/29 17:13:46;;;;;;;18.07;9.87;;;9.70;99.90;;;;;;9819151;30;20579;-79
2023/10/29 17:19:07;;;;;;;19.23;11.80;;;9.70;99.90;;;;;;9819108;30;20418;-79
2023/10/29 17:24:28;;;;;;;22.63;13.27;;;9.70;99.90;;;;;;9818699;30;20210;-78
2023/10/29 17:29:50;;;;;;;19.47;12.07;;;9.80;99.90;;;;;;9818333;30;20239;-79
2023/10/29 17:35:11;;;;;;;20.00;10.87;;;9.80;99.90;;;;;;9786941;30;20205;-79
2023/10/29 17:40:33;;;;;;;20.77;11.20;;;9.80;99.90;;;;;;9818305;30;20200;-80
2023/10/29 17:45:56;;;;;;;15.40;10.27;;;9.70;99.90;;;;;;9818249;30;20263;-79
2023/10/29 17:51:17;;;;;;;21.23;12.00;;;9.80;99.90;;;;;;9817120;30;20546;-79
2023/10/29 17:56:38;;;;;;;23.57;12.50;;;9.70;99.90;;;;;;9817092;30;20198;-79
2023/10/29 18:01:59;;;;;;;22.87;12.10;;;9.80;99.90;;;;;;9814859;30;20243;-79
2023/10/29 18:07:20;;;;;;;21.67;11.57;;;9.80;99.90;;;;;;9816697;30;20232;-79
2023/10/29 18:12:43;;;;;;;28.60;14.93;;;9.70;99.90;;;;;;9817626;30;20508;-79
2023/10/29 18:18:04;;;;;;;21.03;11.73;;;9.70;99.90;;;;;;9815524;30;20249;-78
2023/10/29 18:23:26;;;;;;;17.77;9.60;;;9.80;99.90;;;;;;9817389;30;20212;-80
2023/10/29 18:28:47;;;;;;;21.20;11.83;;;9.70;99.90;;;;;;9792096;30;20241;-79
2023/10/29 18:34:08;;;;;;;19.13;11.63;;;9.80;99.90;;;;;;9817752;30;20546;-79
2023/10/29 18:39:29;;;;;;;19.40;9.87;;;9.80;99.90;;;;;;9817231;30;20232;-79
2023/10/29 18:44:50;;;;;;;16.10;9.50;;;9.80;99.90;;;;;;9816411;30;20294;-79
2023/10/29 18:50:12;;;;;;;18.03;10.03;;;9.80;99.90;;;;;;9817227;30;20594;-78
2023/10/29 18:55:36;;;;;;;41.57;21.10;;;9.70;99.90;;;;;;9816909;30;20206;-79
2023/10/29 19:01:09;;;;;;;87.73;28.60;;;9.70;99.90;;;;;;9801949;30;20319;-78
2023/10/29 19:06:30;;;;;;;94.20;39.30;;;9.60;99.90;;;;;;9794412;30;20206;-79
2023/10/29 19:11:51;;;;;;;58.17;24.93;;;9.60;99.90;;;;;;9822347;30;20211;-78
2023/10/29 19:17:12;;;;;;;35.50;18.20;;;9.50;99.90;;;;;;9823152;30;20284;-78
2023/10/29 19:22:33;;;;;;;34.40;17.47;;;9.60;99.90;;;;;;9822798;30;20199;-79
2023/10/29 19:27:54;;;;;;;30.33;17.30;;;9.50;99.90;;;;;;9823005;30;20234;-79
2023/10/29 19:33:15;;;;;;;27.43;17.27;;;9.60;99.90;;;;;;9823036;30;20559;-78
2023/10/29 19:38:37;;;;;;;18.60;12.83;;;9.70;99.90;;;;;;9822344;30;20206;-78
2023/10/29 19:43:58;;;;;;;12.53;9.27;;;9.90;99.90;;;;;;9822261;30;20228;-78
2023/10/29 19:49:19;;;;;;;11.90;7.20;;;9.90;99.90;;;;;;9821787;30;20253;-79
2023/10/29 19:54:40;;;;;;;19.23;9.83;;;10.00;99.90;;;;;;9821882;30;20551;-79
2023/10/29 20:00:01;;;;;;;17.00;7.40;;;10.00;99.90;;;;;;9821052;30;20237;-78
2023/10/29 20:05:24;;;;;;;18.07;7.73;;;10.00;99.90;;;;;;9820300;30;20261;-79
2023/10/29 20:10:47;;;;;;;13.30;7.60;;;10.00;99.90;;;;;;9806112;30;20280;-79
2023/10/29 20:16:09;;;;;;;13.33;7.27;;;10.00;99.90;;;;;;9821074;30;20254;-79
2023/10/29 20:21:31;;;;;;;16.43;7.87;;;10.10;99.90;;;;;;9822398;30;20286;-79
2023/10/29 20:26:54;;;;;;;16.37;8.63;;;10.10;99.90;;;;;;9823470;30;20505;-79
2023/10/29 20:32:15;;;;;;;12.23;8.47;;;10.10;99.90;;;;;;9822180;30;20258;-79
2023/10/29 20:37:37;;;;;;;15.93;11.07;;;10.10;99.90;;;;;;9807353;30;20398;-79
2023/10/29 20:42:58;;;;;;;12.90;8.87;;;10.10;99.90;;;;;;9820448;30;20512;-79
2023/10/29 20:48:21;;;;;;;11.00;7.30;;;10.00;99.90;;;;;;9820048;30;20256;-79
2023/10/29 20:53:42;;;;;;;11.53;6.90;;;10.10;99.90;;;;;;9820031;30;20263;-79
2023/10/29 20:59:04;;;;;;;10.50;6.30;;;10.10;99.90;;;;;;9819260;30;20212;-78
2023/10/29 21:04:25;;;;;;;9.97;5.73;;;10.10;99.90;;;;;;9819083;30;20616;-79
2023/10/29 21:09:46;;;;;;;9.13;5.57;;;10.20;99.90;;;;;;9819263;30;20285;-79
2023/10/29 21:15:07;;;;;;;9.63;5.90;;;10.20;99.90;;;;;;9819461;30;20368;-78
2023/10/29 21:20:29;;;;;;;16.23;5.40;;;10.10;99.90;;;;;;9819030;30;20528;-79
2023/10/29 21:25:54;;;;;;;9.77;5.73;;;10.20;99.90;;;;;;9819186;30;20433;-79
2023/10/29 21:31:16;;;;;;;8.70;5.53;;;10.20;99.90;;;;;;9818295;30;20313;-79
2023/10/29 21:36:38;;;;;;;12.97;7.70;;;10.20;99.90;;;;;;9818887;30;20256;-78
2023/10/29 21:42:00;;;;;;;11.13;7.23;;;10.20;99.90;;;;;;9819042;30;20199;-79
2023/10/29 21:47:20;;;;;;;16.73;7.70;;;10.20;99.90;;;;;;9818517;30;20247;-78
2023/10/29 21:52:42;;;;;;;18.63;10.77;;;10.20;99.90;;;;;;9818462;30;20206;-78
2023/10/29 21:58:08;;;;;;;22.43;15.13;;;10.20;99.90;;;;;;9820768;30;20544;-78
2023/10/29 22:03:29;;;;;;;23.20;15.73;;;10.20;99.90;;;;;;9785068;30;20253;-79
2023/10/29 22:08:50;;;;;;;31.60;19.67;;;10.20;99.90;;;;;;9806677;30;20237;-78
2023/10/29 22:14:11;;;;;;;27.93;17.03;;;10.20;99.90;;;;;;9818296;30;20210;-79
2023/10/29 22:19:33;;;;;;;13.43;9.37;;;10.30;99.90;;;;;;9817834;30;20443;-79
2023/10/29 22:24:54;;;;;;;11.27;6.30;;;10.30;99.90;;;;;;9819109;30;20206;-78
2023/10/29 22:30:15;;;;;;;8.87;5.23;;;10.30;99.90;;;;;;9818113;30;20469;-79
2023/10/29 22:35:36;;;;;;;11.40;6.43;;;10.30;99.90;;;;;;9818652;30;20388;-79
2023/10/29 22:41:02;;;;;;;12.47;6.07;;;10.40;99.90;;;;;;9821941;30;20209;-79
2023/10/29 22:46:23;;;;;;;8.90;5.50;;;10.40;99.90;;;;;;9825232;30;20200;-78
2023/10/29 22:51:45;;;;;;;11.13;5.50;;;10.50;99.90;;;;;;9824546;30;20233;-78
2023/10/29 22:57:07;;;;;;;6.73;5.00;;;10.60;99.90;;;;;;9825125;30;20215;-78
2023/10/29 23:02:28;;;;;;;8.63;5.40;;;10.60;99.90;;;;;;9822544;30;20333;-78
2023/10/29 23:07:49;;;;;;;7.13;4.87;;;10.70;99.90;;;;;;9824058;30;20227;-78
2023/10/29 23:13:10;;;;;;;8.90;5.20;;;10.80;99.90;;;;;;9823439;30;20202;-79
2023/10/29 23:18:31;;;;;;;9.07;4.80;;;10.70;99.90;;;;;;9824144;30;20211;-80
2023/10/29 23:23:54;;;;;;;8.97;5.70;;;10.70;99.90;;;;;;9824286;30;20403;-79
2023/10/29 23:29:15;;;;;;;9.07;5.57;;;10.70;99.90;;;;;;9823929;30;20247;-80
2023/10/29 23:34:36;;;;;;;10.27;6.27;;;10.70;99.90;;;;;;9824585;30;20202;-78
2023/10/29 23:39:58;;;;;;;8.57;5.43;;;10.80;99.90;;;;;;9823982;30;20209;-77
2023/10/29 23:45:19;;;;;;;10.53;4.63;;;10.90;99.90;;;;;;9822078;30;20217;-78
2023/10/29 23:50:40;;;;;;;8.37;4.50;;;10.80;99.90;;;;;;9822168;30;20234;-78
2023/10/29 23:56:01;;;;;;;7.40;5.83;;;10.90;99.90;;;;;;9822716;30;20212;-79
